Terminal Aerodrome Forecast
Issued by NWS

Home | Current Version | Previous Version | Text Only | Print | Product List | Glossary On
Versions: 1 2 3 4 5 6 7 8 9 10 11 12
000
FTUS43 KMQT 261723
TAFCMX
TAF
KCMX 261723Z 2618/2718 03009KT P6SM FEW035
     FM262300 36007KT P6SM SKC
     FM270900 35007KT P6SM BKN010
     FM271600 35009KT P6SM SCT025=

USA.gov is the U.S. government's official web portal to all federal, state and local government web resources and services.